Time;durP1;ratioP1;P1;durP2;ratioP2;P2;SDS_P1;SDS_P2;PMS_P1;PMS_P2;Temp;Humidity;BMP_temperature;BMP_pressure;BME280_temperature;BME280_humidity;BME280_pressure;Samples;Min_cycle;Max_cycle;Signal;HPM_P1;HPM_P2
2023/07/29 00:00:20;;;;;;;5.87;2.83;;;;;;;19.43;58.62;99615.44;1659111;86;21072;-63
2023/07/29 00:02:50;;;;;;;4.15;2.85;;;;;;;19.41;59.07;99616.81;1658870;86;21652;-63
2023/07/29 00:05:20;;;;;;;3.55;2.45;;;;;;;19.39;59.67;99616.25;1659001;86;21064;-65
2023/07/29 00:07:49;;;;;;;5.12;2.85;;;;;;;19.37;60.04;99605.97;1658966;86;21057;-64
2023/07/29 00:10:17;;;;;;;4.10;2.75;;;;;;;19.36;60.42;99613.47;1658760;85;21077;-64
2023/07/29 00:12:46;;;;;;;3.62;2.40;;;;;;;19.35;60.94;99608.19;1659104;85;21048;-65
2023/07/29 00:15:15;;;;;;;5.05;2.92;;;;;;;19.36;61.18;99612.08;1658675;86;21071;-65
2023/07/29 00:17:46;;;;;;;3.37;2.50;;;;;;;19.37;61.43;99610.97;1658975;86;21532;-65
2023/07/29 00:20:15;;;;;;;3.05;2.70;;;;;;;19.35;61.69;99604.02;1658776;86;21251;-64
2023/07/29 00:22:45;;;;;;;5.53;2.75;;;;;;;19.33;61.95;99602.36;1658921;86;21040;-65
2023/07/29 00:25:14;;;;;;;3.77;2.77;;;;;;;19.32;62.21;99609.02;1658748;86;21520;-65
2023/07/29 00:27:44;;;;;;;4.40;2.58;;;;;;;19.31;62.47;99605.96;1658720;86;21555;-64
2023/07/29 00:30:13;;;;;;;5.78;2.75;;;;;;;19.35;62.65;99605.41;1658934;85;21056;-64
2023/07/29 00:32:44;;;;;;;4.05;2.77;;;;;;;19.37;62.72;99604.03;1658788;85;21488;-64
2023/07/29 00:35:14;;;;;;;6.42;3.10;;;;;;;19.38;62.95;99604.86;1637804;86;21234;-64
2023/07/29 00:37:43;;;;;;;4.28;2.60;;;;;;;19.38;63.09;99606.25;1661203;85;21546;-64
2023/07/29 00:40:17;;;;;;;3.52;2.70;;;;;;;19.37;63.26;99602.64;1660911;85;21557;-65
2023/07/29 00:42:46;;;;;;;5.03;2.55;;;;;;;19.37;63.48;99610.14;1661303;86;21088;-64
2023/07/29 00:45:16;;;;;;;4.35;2.77;;;;;;;19.37;63.59;99606.81;1660978;86;21056;-64
2023/07/29 00:47:46;;;;;;;4.65;2.70;;;;;;;19.36;63.66;99609.30;1660908;86;21538;-64
2023/07/29 00:50:16;;;;;;;5.80;2.45;;;;;;;19.37;63.70;99612.36;1660918;86;21539;-64
2023/07/29 00:52:45;;;;;;;3.95;2.40;;;;;;;19.36;63.79;99607.92;1660890;86;21806;-63
2023/07/29 00:55:13;;;;;;;5.10;2.50;;;;;;;19.37;63.88;99614.31;1661038;86;21092;-63
2023/07/29 00:57:47;;;;;;;5.00;2.65;;;;;;;19.38;63.95;99610.42;1660944;86;21036;-64
2023/07/29 01:00:15;;;;;;;4.92;2.70;;;;;;;19.39;64.01;99613.48;1660793;85;21510;-65
2023/07/29 01:02:45;;;;;;;7.53;2.90;;;;;;;19.40;64.11;99605.42;1661036;86;21127;-64
2023/07/29 01:05:16;;;;;;;5.83;2.65;;;;;;;19.39;64.17;99603.75;1660838;86;21791;-64
2023/07/29 01:08:01;;;;;;;8.05;2.70;;;;;;;19.38;64.27;99604.31;1661041;85;21049;-64
2023/07/29 01:10:42;;;;;;;5.95;2.65;;;;;;;19.39;64.38;99601.81;1660999;86;21060;-64
2023/07/29 01:13:25;;;;;;;4.97;2.55;;;;;;;19.39;64.55;99598.20;1660906;86;21045;-64
2023/07/29 01:16:00;;;;;;;4.25;2.70;;;;;;;19.40;64.57;99601.25;1660881;85;21092;-64
2023/07/29 01:18:32;;;;;;;6.90;2.90;;;;;;;19.40;64.65;99604.03;1661116;86;21147;-64
2023/07/29 01:21:03;;;;;;;5.70;2.67;;;;;;;19.41;64.67;99603.76;1660561;86;21448;-65
2023/07/29 01:23:35;;;;;;;4.17;2.20;;;;;;;19.39;64.74;99599.59;1661132;86;21052;-64
2023/07/29 01:26:04;;;;;;;4.85;2.50;;;;;;;19.37;64.86;99598.47;1660571;86;21550;-65
2023/07/29 01:28:33;;;;;;;2.95;2.50;;;;;;;19.37;65.00;99607.36;1660860;86;21096;-65
2023/07/29 01:31:16;;;;;;;4.70;2.30;;;;;;;19.34;65.09;99605.97;1660830;86;21118;-64
2023/07/29 01:33:51;;;;;;;5.00;2.40;;;;;;;19.35;65.19;99609.03;1661135;86;21071;-64
2023/07/29 01:36:23;;;;;;;3.15;2.12;;;;;;;19.32;65.34;99604.86;1658703;86;21632;-65
2023/07/29 01:38:52;;;;;;;2.87;2.10;;;;;;;19.34;65.42;99610.14;1658915;85;21049;-64
2023/07/29 01:41:21;;;;;;;3.10;2.47;;;;;;;19.35;65.41;99613.19;1658756;85;21048;-64
2023/07/29 01:43:50;;;;;;;4.55;2.50;;;;;;;19.32;65.44;99611.80;1658798;86;21057;-64
2023/07/29 01:46:20;;;;;;;3.87;2.40;;;;;;;19.31;65.56;99607.91;1658925;85;21044;-64
2023/07/29 01:48:50;;;;;;;6.35;2.65;;;;;;;19.30;65.67;99604.85;1658802;86;21484;-65
2023/07/29 01:51:19;;;;;;;3.55;2.30;;;;;;;19.30;65.78;99607.63;1659007;85;21036;-64
2023/07/29 01:53:47;;;;;;;4.20;2.37;;;;;;;19.30;65.79;99608.46;1659152;85;21463;-64
2023/07/29 01:56:16;;;;;;;4.83;2.80;;;;;;;19.31;65.89;99617.08;1658965;86;21017;-65
2023/07/29 01:58:47;;;;;;;6.33;3.50;;;;;;;19.32;65.87;99615.97;1658075;86;21118;-64
2023/07/29 02:01:16;;;;;;;3.75;2.65;;;;;;;19.36;65.87;99615.42;1658783;85;21100;-65
2023/07/29 02:03:45;;;;;;;4.40;2.60;;;;;;;19.33;65.92;99616.25;1658902;85;21518;-64
2023/07/29 02:06:14;;;;;;;3.30;2.47;;;;;;;19.33;65.96;99609.30;1658889;85;21500;-64
2023/07/29 02:08:43;;;;;;;3.15;2.45;;;;;;;19.33;65.92;99609.30;1658832;86;21080;-64
2023/07/29 02:11:12;;;;;;;4.42;2.72;;;;;;;19.33;66.06;99607.08;1658768;86;21050;-64
2023/07/29 02:13:41;;;;;;;3.60;2.40;;;;;;;19.35;66.01;99609.58;1658950;86;21100;-64
2023/07/29 02:16:32;;;;;;;4.10;2.70;;;;;;;19.35;66.01;99612.36;1658985;85;21496;-64
2023/07/29 02:19:05;;;;;;;5.12;2.30;;;;;;;19.34;66.10;99617.08;1585266;90;21108;-64
2023/07/29 02:21:34;;;;;;;3.90;2.50;;;;;;;19.35;66.10;99613.75;1631265;87;21136;-63
2023/07/29 02:24:04;;;;;;;3.58;2.40;;;;;;;19.36;66.09;99615.42;1638465;87;21074;-64
2023/07/29 02:26:35;;;;;;;5.83;2.42;;;;;;;19.36;66.20;99618.20;1638510;87;21086;-64
2023/07/29 02:29:04;;;;;;;5.45;2.62;;;;;;;19.36;66.26;99612.08;1638707;87;21173;-65
2023/07/29 02:31:34;;;;;;;4.42;2.50;;;;;;;19.32;66.26;99613.74;1638576;87;21105;-64
2023/07/29 02:34:04;;;;;;;5.17;2.47;;;;;;;19.29;66.40;99615.13;1638804;87;21071;-64
2023/07/29 02:36:34;;;;;;;4.45;2.50;;;;;;;19.29;66.47;99618.45;1638654;87;21085;-65
2023/07/29 02:39:05;;;;;;;6.05;2.40;;;;;;;19.28;66.50;99607.91;1638641;87;21082;-66
2023/07/29 02:41:34;;;;;;;4.62;2.30;;;;;;;19.25;66.65;99604.28;1638534;87;21101;-63
2023/07/29 02:44:05;;;;;;;3.92;2.40;;;;;;;19.24;66.74;99610.11;1638724;87;21486;-62
2023/07/29 02:46:33;;;;;;;3.50;2.60;;;;;;;19.23;66.74;99612.61;1638686;87;21114;-64
2023/07/29 02:49:03;;;;;;;6.17;2.58;;;;;;;19.22;66.76;99618.72;1638778;87;21106;-64
2023/07/29 02:51:32;;;;;;;3.87;2.40;;;;;;;19.20;66.92;99615.38;1638548;87;21019;-65
2023/07/29 02:54:01;;;;;;;3.42;2.40;;;;;;;19.19;66.96;99620.66;1638725;87;21077;-65
2023/07/29 02:56:30;;;;;;;4.17;2.50;;;;;;;19.19;66.98;99623.43;1638640;87;21061;-64
2023/07/29 02:59:01;;;;;;;4.28;2.60;;;;;;;19.18;66.97;99628.70;1638432;87;21113;-65
2023/07/29 03:01:30;;;;;;;3.87;2.55;;;;;;;19.19;67.08;99620.66;1638812;87;21054;-64
2023/07/29 03:03:59;;;;;;;8.65;2.70;;;;;;;19.20;67.22;99620.10;1638678;87;21114;-63
2023/07/29 03:06:29;;;;;;;4.90;2.40;;;;;;;19.21;67.45;99621.77;1638710;87;21470;-64
2023/07/29 03:08:58;;;;;;;5.10;2.92;;;;;;;19.22;67.46;99620.66;1638690;87;21151;-65
2023/07/29 03:11:27;;;;;;;2.92;2.08;;;;;;;19.22;67.57;99629.83;1638739;87;21113;-63
2023/07/29 03:13:56;;;;;;;4.47;2.70;;;;;;;19.22;67.61;99622.88;1638906;87;21189;-65
2023/07/29 03:16:25;;;;;;;4.55;2.60;;;;;;;19.23;67.64;99625.11;1618693;87;21102;-63
2023/07/29 03:18:57;;;;;;;11.57;2.90;;;;;;;19.22;67.74;99632.61;1657492;85;21121;-64
2023/07/29 03:21:26;;;;;;;6.58;3.00;;;;;;;19.25;67.78;99638.16;1660054;86;21556;-65
2023/07/29 03:23:54;;;;;;;5.47;2.95;;;;;;;19.24;67.70;99641.50;1660191;86;21117;-64
2023/07/29 03:26:25;;;;;;;3.35;2.40;;;;;;;19.21;67.81;99640.66;1659963;86;21042;-64
2023/07/29 03:28:55;;;;;;;4.62;2.50;;;;;;;19.20;67.96;99641.77;1660285;85;21508;-64
2023/07/29 03:31:23;;;;;;;5.50;2.60;;;;;;;19.18;67.97;99646.76;1660290;85;21101;-64
2023/07/29 03:33:52;;;;;;;5.97;2.70;;;;;;;19.18;68.08;99643.98;1659958;86;21470;-64
2023/07/29 03:36:22;;;;;;;4.75;2.62;;;;;;;19.18;68.27;99632.88;1660006;86;21098;-64
2023/07/29 03:38:50;;;;;;;3.45;2.60;;;;;;;19.15;68.36;99635.36;1659917;86;21054;-64
2023/07/29 03:41:19;;;;;;;4.95;3.40;;;;;;;19.14;68.59;99629.52;1660041;86;21086;-64
2023/07/29 03:43:48;;;;;;;6.00;3.00;;;;;;;19.10;68.72;99637.56;1660171;85;21085;-63
2023/07/29 03:46:21;;;;;;;6.03;2.80;;;;;;;19.09;68.92;99643.39;1660010;85;21019;-63
2023/07/29 03:48:49;;;;;;;4.60;3.08;;;;;;;19.09;69.12;99645.62;1660179;85;21058;-64
2023/07/29 03:51:19;;;;;;;5.12;2.70;;;;;;;19.06;69.40;99645.33;1660072;86;21050;-63
2023/07/29 03:53:47;;;;;;;5.28;3.20;;;;;;;19.03;69.53;99650.87;1659969;86;21478;-64
2023/07/29 03:56:17;;;;;;;6.42;3.20;;;;;;;18.99;69.67;99646.96;1660137;86;21089;-64
2023/07/29 03:58:48;;;;;;;6.95;3.70;;;;;;;18.96;69.95;99646.95;1660158;85;21085;-64
2023/07/29 04:01:18;;;;;;;7.03;3.40;;;;;;;18.96;70.18;99641.95;1660077;86;21093;-65
2023/07/29 04:03:48;;;;;;;5.47;2.90;;;;;;;18.98;70.30;99646.12;1659992;85;21074;-64
2023/07/29 04:06:17;;;;;;;5.87;2.80;;;;;;;18.98;70.53;99639.74;1659964;86;21074;-64
2023/07/29 04:08:47;;;;;;;7.20;3.10;;;;;;;18.97;70.62;99645.84;1676264;85;21134;-64
2023/07/29 04:11:17;;;;;;;5.33;2.80;;;;;;;19.00;70.63;99644.47;1660132;86;21540;-64
2023/07/29 04:13:47;;;;;;;4.78;3.02;;;;;;;19.01;70.73;99643.36;1628116;86;21074;-64
2023/07/29 04:16:17;;;;;;;7.53;3.00;;;;;;;19.01;70.86;99648.91;1660139;86;21171;-64
2023/07/29 04:18:47;;;;;;;4.60;3.12;;;;;;;19.03;71.27;99643.09;1666218;85;21089;-64
2023/07/29 04:23:59;;;;;;;5.20;2.98;;;;;;;19.12;71.54;99647.02;1637019;86;21041;-64
2023/07/29 04:26:28;;;;;;;10.93;3.00;;;;;;;19.14;71.63;99642.86;1665724;86;21081;-64
2023/07/29 04:28:58;;;;;;;7.25;3.35;;;;;;;19.18;71.54;99645.37;1665719;86;21474;-65
2023/07/29 04:31:28;;;;;;;4.70;2.62;;;;;;;19.22;71.54;99639.55;1665704;86;21105;-64
2023/07/29 04:33:58;;;;;;;5.22;2.67;;;;;;;19.26;71.31;99646.23;1645201;86;21094;-63
2023/07/29 04:36:26;;;;;;;6.53;2.50;;;;;;;19.29;71.22;99647.06;1666053;86;21074;-63
2023/07/29 04:38:56;;;;;;;7.33;2.65;;;;;;;19.32;71.08;99646.52;1665997;86;21033;-65
2023/07/29 04:41:25;;;;;;;6.70;2.52;;;;;;;19.35;71.04;99642.91;1665992;86;21074;-65
2023/07/29 04:43:54;;;;;;;4.03;2.47;;;;;;;19.40;71.22;99647.93;1665774;86;21501;-64
2023/07/29 04:46:23;;;;;;;3.62;2.60;;;;;;;19.46;70.78;99645.44;1665783;86;21489;-64
2023/07/29 04:48:53;;;;;;;6.42;2.72;;;;;;;19.55;70.59;99644.41;1665747;86;21021;-64
2023/07/29 04:51:22;;;;;;;4.65;2.40;;;;;;;19.64;70.59;99644.15;1665828;86;21050;-64
2023/07/29 04:53:51;;;;;;;4.92;2.50;;;;;;;19.76;70.50;99646.66;1665818;85;21516;-64
2023/07/29 04:56:22;;;;;;;3.65;2.45;;;;;;;19.88;69.87;99650.01;1665849;86;21098;-63
2023/07/29 04:58:50;;;;;;;6.80;2.60;;;;;;;19.96;69.48;99646.67;1665857;85;21049;-65
2023/07/29 05:01:18;;;;;;;4.08;2.50;;;;;;;20.02;69.33;99653.07;1665787;86;21026;-64
2023/07/29 05:03:48;;;;;;;3.33;2.42;;;;;;;20.07;69.10;99659.47;1665730;86;21061;-64
2023/07/29 05:06:18;;;;;;;6.83;2.80;;;;;;;20.12;68.92;99655.84;1665923;86;21050;-65
2023/07/29 05:08:47;;;;;;;3.55;2.87;;;;;;;20.14;68.79;99658.63;1665840;85;21050;-64
2023/07/29 05:11:16;;;;;;;5.53;3.05;;;;;;;20.15;68.61;99660.86;1665750;86;21094;-64
2023/07/29 05:13:46;;;;;;;6.45;4.10;;;;;;;20.11;68.50;99648.62;1665931;86;21058;-64
2023/07/29 05:16:16;;;;;;;4.25;2.58;;;;;;;20.09;68.62;99647.51;1665939;86;21069;-64
2023/07/29 05:18:46;;;;;;;4.10;2.60;;;;;;;20.12;68.58;99644.72;1665877;86;21077;-65
2023/07/29 05:21:15;;;;;;;5.83;2.40;;;;;;;20.20;68.52;99642.25;1665656;86;21059;-64
2023/07/29 05:23:43;;;;;;;4.30;2.70;;;;;;;20.40;68.32;99651.16;1665489;84;21061;-63
2023/07/29 05:26:12;;;;;;;8.13;3.10;;;;;;;20.67;67.71;99651.37;1665663;85;21026;-64
2023/07/29 05:28:41;;;;;;;4.97;2.90;;;;;;;20.88;67.00;99646.05;1665471;85;21531;-65
2023/07/29 05:31:11;;;;;;;16.55;3.60;;;;;;;21.06;66.47;99641.23;1665618;86;21098;-64
2023/07/29 05:33:41;;;;;;;3.22;2.47;;;;;;;21.22;65.64;99644.78;1665660;85;21097;-64
2023/07/29 05:36:10;;;;;;;5.45;2.60;;;;;;;21.31;64.96;99647.84;1665687;86;21011;-63
2023/07/29 05:38:40;;;;;;;18.80;3.98;;;;;;;21.34;64.24;99645.31;1665666;86;21074;-65
2023/07/29 05:41:10;;;;;;;8.18;4.28;;;;;;;21.33;63.95;99652.56;1665505;86;21037;-64
2023/07/29 05:43:42;;;;;;;4.95;2.62;;;;;;;21.31;63.83;99650.06;1665603;86;21512;-64
2023/07/29 05:46:12;;;;;;;6.20;2.58;;;;;;;21.28;63.92;99652.03;1665738;86;21438;-64
2023/07/29 05:48:41;;;;;;;9.60;2.83;;;;;;;21.27;63.79;99652.31;1665694;85;21081;-64
2023/07/29 05:51:11;;;;;;;4.40;3.00;;;;;;;21.23;64.03;99657.63;1665636;85;21077;-64
2023/07/29 05:53:42;;;;;;;3.85;2.72;;;;;;;21.17;64.16;99658.19;1665793;86;21026;-64
2023/07/29 05:56:11;;;;;;;3.90;2.60;;;;;;;21.12;64.33;99651.23;1665686;86;21074;-65
2023/07/29 05:58:40;;;;;;;5.05;3.42;;;;;;;21.07;64.35;99656.84;1665479;85;21070;-63
2023/07/29 06:01:09;;;;;;;3.75;2.58;;;;;;;21.05;64.57;99659.63;1665552;86;21437;-63
2023/07/29 06:03:38;;;;;;;4.35;2.70;;;;;;;21.11;64.44;99649.58;1665699;86;21054;-64
2023/07/29 06:06:07;;;;;;;4.87;2.83;;;;;;;21.18;64.29;99645.08;1665735;86;21026;-64
2023/07/29 06:08:37;;;;;;;4.53;2.75;;;;;;;21.35;64.18;99655.89;1665617;86;21022;-64
2023/07/29 06:11:07;;;;;;;7.83;3.77;;;;;;;21.62;63.45;99654.09;1665669;85;21046;-64
2023/07/29 06:13:38;;;;;;;4.97;3.00;;;;;;;21.94;62.58;99650.23;1665685;85;21069;-64
2023/07/29 06:16:07;;;;;;;5.37;2.77;;;;;;;22.26;61.69;99652.53;1645087;86;21474;-64
2023/07/29 06:18:39;;;;;;;4.10;2.67;;;;;;;22.53;60.76;99649.77;1667193;85;21078;-64
2023/07/29 06:21:11;;;;;;;10.25;3.25;;;;;;;22.77;59.90;99656.23;1665661;85;21082;-63
2023/07/29 06:23:39;;;;;;;4.37;2.75;;;;;;;22.99;59.31;99644.55;1665487;85;21501;-64
2023/07/29 06:26:08;;;;;;;4.20;2.60;;;;;;;23.20;58.71;99654.91;1665706;85;21081;-63
2023/07/29 06:28:37;;;;;;;4.03;2.85;;;;;;;23.31;57.77;99654.47;1665728;86;21159;-64
2023/07/29 06:31:08;;;;;;;5.47;2.98;;;;;;;23.27;57.71;99649.78;1665569;86;21497;-63
2023/07/29 06:33:38;;;;;;;3.98;3.02;;;;;;;23.16;57.93;99646.29;1665517;85;21054;-63
2023/07/29 06:36:07;;;;;;;15.10;3.85;;;;;;;23.15;58.43;99642.39;1665715;86;21484;-65
2023/07/29 06:38:36;;;;;;;7.25;4.30;;;;;;;23.33;58.38;99647.19;1665441;86;21477;-64
2023/07/29 06:41:05;;;;;;;11.05;4.20;;;;;;;23.61;57.89;99652.44;1665249;86;21101;-65
2023/07/29 06:43:35;;;;;;;5.37;3.20;;;;;;;23.84;56.95;99646.50;1665610;86;21061;-64
2023/07/29 06:46:05;;;;;;;3.52;2.80;;;;;;;23.95;56.36;99644.63;1665645;86;21117;-64
2023/07/29 06:48:35;;;;;;;4.10;2.90;;;;;;;24.05;55.83;99652.03;1665519;86;21070;-64
2023/07/29 06:51:05;;;;;;;10.48;3.75;;;;;;;24.19;55.32;99644.54;1665431;86;21113;-65
2023/07/29 06:53:35;;;;;;;8.30;3.90;;;;;;;24.29;54.73;99648.59;1665474;86;21050;-63
2023/07/29 06:56:04;;;;;;;8.28;3.70;;;;;;;24.24;54.55;99648.66;1665580;85;21089;-64
2023/07/29 06:58:33;;;;;;;5.33;2.85;;;;;;;24.27;54.54;99648.64;1665433;85;21905;-63
2023/07/29 07:01:03;;;;;;;3.42;2.65;;;;;;;24.38;54.28;99647.31;1665622;85;21065;-64
2023/07/29 07:03:33;;;;;;;3.90;2.50;;;;;;;24.56;53.66;99634.39;1665467;85;21022;-64
2023/07/29 07:06:04;;;;;;;3.87;2.70;;;;;;;24.64;53.44;99642.08;1645170;86;21101;-63
2023/07/29 07:08:33;;;;;;;4.78;3.10;;;;;;;24.73;53.29;99638.84;1665615;86;21597;-65
2023/07/29 07:11:03;;;;;;;5.22;3.37;;;;;;;24.93;52.76;99646.84;1665413;85;21045;-64
2023/07/29 07:13:33;;;;;;;6.53;3.17;;;;;;;25.08;52.18;99649.94;1665756;86;21014;-63
2023/07/29 07:16:03;;;;;;;6.03;3.75;;;;;;;24.99;52.21;99641.17;1665574;86;21042;-64
2023/07/29 07:18:33;;;;;;;6.58;3.10;;;;;;;24.80;52.72;99639.27;1665557;86;21014;-64
2023/07/29 07:21:03;;;;;;;2.90;2.60;;;;;;;24.84;53.09;99652.09;1665444;85;21065;-66
2023/07/29 07:23:33;;;;;;;4.10;2.65;;;;;;;24.99;52.29;99645.38;1665483;85;21054;-64
2023/07/29 07:26:02;;;;;;;5.72;2.87;;;;;;;24.93;52.16;99646.84;1665669;86;21438;-64
2023/07/29 07:28:32;;;;;;;6.15;2.98;;;;;;;24.88;52.32;99644.72;1665476;86;21182;-64
2023/07/29 07:31:01;;;;;;;6.80;3.02;;;;;;;24.88;52.73;99642.75;1665515;86;21069;-65
2023/07/29 07:33:31;;;;;;;6.00;3.35;;;;;;;25.04;52.93;99636.86;1665452;86;21209;-65
2023/07/29 07:36:01;;;;;;;6.72;3.45;;;;;;;25.16;52.27;99642.77;1665648;85;21054;-65
2023/07/29 07:38:31;;;;;;;5.97;3.58;;;;;;;25.09;52.13;99640.95;1645207;86;21125;-63
2023/07/29 07:41:00;;;;;;;6.03;3.33;;;;;;;25.08;52.64;99640.70;1665712;85;21102;-65
2023/07/29 07:43:30;;;;;;;4.75;3.27;;;;;;;25.20;52.48;99655.84;1665625;86;21595;-64
2023/07/29 07:46:00;;;;;;;4.55;3.15;;;;;;;25.28;51.98;99645.88;1665656;86;21188;-64
2023/07/29 07:48:32;;;;;;;7.12;3.27;;;;;;;25.16;51.98;99642.77;1665677;86;21101;-64
2023/07/29 07:51:12;;;;;;;5.17;3.17;;;;;;;25.08;52.48;99633.12;1665596;86;21457;-65
2023/07/29 07:53:42;;;;;;;4.67;2.70;;;;;;;25.17;52.66;99637.42;1665502;86;21508;-64
2023/07/29 07:56:11;;;;;;;4.00;3.10;;;;;;;25.29;52.97;99635.74;1665680;86;21077;-67
2023/07/29 07:58:41;;;;;;;4.33;2.95;;;;;;;25.35;52.44;99637.03;1663961;84;21160;-68
2023/07/29 08:01:14;;;;;;;6.58;3.62;;;;;;;25.37;52.26;99636.18;1634691;85;21109;-65
2023/07/29 08:03:46;;;;;;;4.47;3.30;;;;;;;25.47;52.37;99626.95;1617122;88;21064;-66
2023/07/29 08:06:15;;;;;;;5.62;3.22;;;;;;;25.70;51.65;99633.47;1658646;85;21099;-65
2023/07/29 08:08:44;;;;;;;7.05;3.35;;;;;;;25.82;51.57;99644.14;1652804;85;21032;-65
2023/07/29 08:11:14;;;;;;;8.53;3.40;;;;;;;25.73;51.03;99639.86;1645339;87;21054;-67
2023/07/29 08:13:43;;;;;;;5.78;3.25;;;;;;;25.55;51.75;99640.23;1645500;86;21111;-66
2023/07/29 08:16:12;;;;;;;6.80;3.10;;;;;;;25.42;52.45;99636.06;1645391;87;21099;-66
2023/07/29 08:18:41;;;;;;;4.10;3.40;;;;;;;25.32;52.79;99645.50;1685489;84;21081;-68
2023/07/29 08:21:10;;;;;;;4.50;2.70;;;;;;;25.25;52.78;99636.69;1691522;85;21482;-66
2023/07/29 08:23:39;;;;;;;3.70;2.47;;;;;;;25.20;53.07;99639.59;1691429;85;21061;-65
2023/07/29 08:26:08;;;;;;;5.97;2.45;;;;;;;25.22;53.45;99635.91;1691743;83;21038;-65
2023/07/29 08:28:38;;;;;;;6.25;2.77;;;;;;;25.40;53.35;99629.36;1691487;84;21529;-67
2023/07/29 08:31:08;;;;;;;5.72;2.90;;;;;;;25.59;52.74;99621.63;1691352;83;21132;-66
2023/07/29 08:33:38;;;;;;;4.08;2.30;;;;;;;25.84;52.28;99618.81;1694981;84;21062;-66
2023/07/29 08:36:06;;;;;;;3.92;2.55;;;;;;;26.05;51.97;99617.77;1632879;87;21091;-65
2023/07/29 08:38:37;;;;;;;4.08;2.30;;;;;;;26.29;51.34;99623.62;1633132;87;21040;-66
2023/07/29 08:41:22;;;;;;;4.12;2.40;;;;;;;26.49;51.14;99618.89;1632664;87;21064;-66
2023/07/29 08:44:01;;;;;;;5.37;2.67;;;;;;;26.65;50.50;99610.30;1607583;89;21097;-65
2023/07/29 08:46:31;;;;;;;3.72;2.45;;;;;;;26.87;49.61;99612.81;1634257;87;21341;-66
2023/07/29 08:49:01;;;;;;;3.45;2.70;;;;;;;26.97;49.22;99606.89;1632200;88;21472;-68
2023/07/29 08:51:31;;;;;;;2.90;2.60;;;;;;;26.94;49.04;99606.14;1632476;88;21088;-63
2023/07/29 08:54:00;;;;;;;3.35;2.50;;;;;;;26.79;49.71;99614.44;1632593;86;21487;-65
2023/07/29 08:56:30;;;;;;;3.70;2.83;;;;;;;26.78;49.80;99617.83;1606951;89;21205;-63
2023/07/29 08:59:01;;;;;;;4.08;2.95;;;;;;;26.80;49.99;99609.89;1632833;87;21520;-65
2023/07/29 09:01:31;;;;;;;5.72;3.05;;;;;;;27.02;49.89;99606.19;1627207;87;21107;-63
2023/07/29 09:04:09;;;;;;;3.47;2.60;;;;;;;27.29;48.97;99613.54;1633027;87;21116;-63
2023/07/29 09:06:39;;;;;;;3.62;2.77;;;;;;;27.49;48.00;99603.67;1632004;88;21564;-66
2023/07/29 09:09:09;;;;;;;5.53;3.20;;;;;;;27.75;47.77;99601.72;1647783;86;21157;-65
2023/07/29 09:11:38;;;;;;;6.35;3.00;;;;;;;27.75;47.77;99601.72;1659798;86;21054;-65
2023/07/29 09:14:08;;;;;;;2.98;2.22;;;;;;;27.87;47.21;99607.27;1659883;86;21128;-65
2023/07/29 09:16:38;;;;;;;3.30;2.33;;;;;;;27.81;46.72;99598.73;1659730;86;21485;-67
2023/07/29 09:19:08;;;;;;;3.65;2.37;;;;;;;27.81;46.72;99598.73;1639542;86;21118;-65
2023/07/29 09:21:39;;;;;;;2.90;2.60;;;;;;;27.72;46.55;99608.02;1659552;86;21117;-65
2023/07/29 09:24:09;;;;;;;5.15;2.37;;;;;;;27.52;46.45;99597.37;1658970;86;21522;-65
2023/07/29 09:26:39;;;;;;;4.12;2.20;;;;;;;27.14;47.40;99597.13;1657629;86;21474;-62
2023/07/29 09:29:08;;;;;;;5.40;2.42;;;;;;;26.97;48.15;99602.67;1636884;86;21644;-66
2023/07/29 09:31:39;;;;;;;6.75;3.10;;;;;;;26.95;48.03;99600.77;1657825;86;21122;-64
2023/07/29 09:34:08;;;;;;;3.72;2.47;;;;;;;26.88;48.57;99599.00;1657914;86;21082;-64
2023/07/29 09:36:38;;;;;;;3.27;2.30;;;;;;;26.84;48.87;99591.22;1657730;86;21082;-66
2023/07/29 09:39:13;;;;;;;5.08;2.58;;;;;;;26.80;49.45;99587.41;1657721;86;21479;-64
2023/07/29 09:41:44;;;;;;;4.42;2.55;;;;;;;26.80;49.74;99599.23;1657761;86;21051;-64
2023/07/29 09:44:15;;;;;;;4.78;2.15;;;;;;;26.80;49.21;99591.63;1636766;86;21095;-64
2023/07/29 09:46:46;;;;;;;3.42;2.50;;;;;;;26.70;48.85;99596.13;1657750;86;21094;-66
2023/07/29 09:49:15;;;;;;;3.60;2.72;;;;;;;26.54;48.96;99594.88;1657793;86;21106;-64
2023/07/29 09:51:44;;;;;;;3.45;2.40;;;;;;;26.43;49.26;99610.34;1657836;86;21043;-64
2023/07/29 09:54:14;;;;;;;3.95;2.37;;;;;;;26.33;49.50;99614.84;1637222;86;21148;-65
2023/07/29 09:56:44;;;;;;;5.70;2.40;;;;;;;26.22;49.80;99595.98;1657760;86;21035;-66
2023/07/29 09:59:14;;;;;;;3.22;2.05;;;;;;;26.11;50.59;99591.22;1657677;86;21088;-69
2023/07/29 10:01:43;;;;;;;5.30;2.00;;;;;;;26.07;50.62;99590.77;1657664;86;21158;-64
2023/07/29 10:04:12;;;;;;;2.55;2.12;;;;;;;26.00;50.24;99591.77;1657795;86;21050;-65
2023/07/29 10:06:42;;;;;;;2.98;2.37;;;;;;;25.93;50.78;99588.01;1657457;86;21059;-66
2023/07/29 10:09:12;;;;;;;3.58;1.85;;;;;;;25.91;50.56;99582.71;1677143;85;21098;-65
2023/07/29 10:11:42;;;;;;;2.20;2.00;;;;;;;25.95;50.81;99585.70;1691692;85;21085;-65
2023/07/29 10:14:11;;;;;;;5.25;2.70;;;;;;;25.98;51.08;99582.27;1691062;85;21508;-64
2023/07/29 10:16:41;;;;;;;5.35;2.37;;;;;;;26.05;51.49;99577.05;1691557;85;21117;-65
2023/07/29 10:19:10;;;;;;;2.72;2.05;;;;;;;26.11;51.61;99584.20;1691309;84;21434;-68
2023/07/29 10:21:44;;;;;;;5.10;2.15;;;;;;;26.13;49.84;99585.28;1691346;85;21470;-66
2023/07/29 10:24:16;;;;;;;3.12;1.92;;;;;;;26.08;49.34;99578.39;1690632;84;21070;-65
2023/07/29 10:26:47;;;;;;;2.37;1.98;;;;;;;26.02;49.49;99581.91;1690958;84;21084;-65
2023/07/29 10:29:21;;;;;;;3.80;2.17;;;;;;;25.97;49.76;99576.39;1691077;85;21023;-65
2023/07/29 10:31:53;;;;;;;2.80;2.10;;;;;;;25.86;50.03;99580.61;1687177;84;21098;-64
2023/07/29 10:34:23;;;;;;;2.20;1.92;;;;;;;25.86;50.16;99574.42;1691108;85;21057;-65
2023/07/29 10:36:52;;;;;;;4.67;2.22;;;;;;;25.96;49.70;99578.95;1690698;85;21078;-65
2023/07/29 10:39:21;;;;;;;5.03;2.20;;;;;;;26.05;49.66;99568.63;1691383;83;21023;-64
2023/07/29 10:42:00;;;;;;;3.37;2.00;;;;;;;26.12;49.69;99578.00;1691642;83;21090;-66
2023/07/29 10:44:46;;;;;;;2.42;2.08;;;;;;;26.18;49.65;99578.12;1690771;85;21567;-65
2023/07/29 10:47:24;;;;;;;3.00;2.30;;;;;;;26.26;49.64;99579.33;1690395;84;21522;-65
2023/07/29 10:49:59;;;;;;;4.70;2.77;;;;;;;26.24;49.82;99572.63;1691676;85;21093;-65
2023/07/29 10:52:34;;;;;;;5.17;2.35;;;;;;;26.25;50.25;99573.45;1691070;85;21548;-68
2023/07/29 10:55:04;;;;;;;3.60;2.70;;;;;;;26.27;50.07;99573.96;1687100;84;21105;-65
2023/07/29 10:57:44;;;;;;;2.70;2.35;;;;;;;26.28;50.85;99565.79;1664813;85;21128;-63
2023/07/29 11:00:12;;;;;;;3.55;2.02;;;;;;;26.30;50.14;99569.10;1691465;84;21039;-64
2023/07/29 11:02:46;;;;;;;6.28;2.27;;;;;;;26.34;50.05;99578.00;1665436;85;21047;-66
2023/07/29 11:05:19;;;;;;;4.45;2.42;;;;;;;26.40;49.61;99580.09;1642081;84;21146;-65
2023/07/29 11:07:48;;;;;;;2.65;2.20;;;;;;;26.45;49.54;99575.16;1691046;85;21054;-65
2023/07/29 11:10:18;;;;;;;7.15;2.77;;;;;;;26.50;49.17;99572.21;1625744;88;21519;-65
2023/07/29 11:12:53;;;;;;;3.58;2.60;;;;;;;26.54;49.15;99569.01;1625763;88;21108;-65
2023/07/29 11:15:26;;;;;;;3.47;2.08;;;;;;;26.61;48.90;99574.16;1655489;87;21047;-65
2023/07/29 11:18:00;;;;;;;3.58;2.33;;;;;;;26.64;48.23;99569.87;1625857;88;21059;-66
2023/07/29 11:20:31;;;;;;;3.02;1.95;;;;;;;26.60;48.49;99582.91;1635084;87;21067;-64
2023/07/29 11:23:02;;;;;;;3.72;2.10;;;;;;;26.50;48.12;99576.42;1625736;88;21106;-65
2023/07/29 11:25:33;;;;;;;2.33;2.10;;;;;;;26.38;48.52;99569.75;1656717;86;21110;-65
2023/07/29 11:28:03;;;;;;;4.78;2.15;;;;;;;26.23;48.88;99572.38;1657163;86;21074;-65
2023/07/29 11:30:34;;;;;;;5.17;2.37;;;;;;;26.15;49.82;99568.94;1657285;86;21035;-65
2023/07/29 11:33:03;;;;;;;3.35;2.20;;;;;;;26.17;49.90;99566.64;1657276;86;21115;-66
2023/07/29 11:35:33;;;;;;;3.58;2.02;;;;;;;26.20;49.83;99566.83;1637145;86;21063;-67
2023/07/29 11:38:02;;;;;;;2.92;2.02;;;;;;;26.26;49.66;99567.52;1657657;86;21071;-67
2023/07/29 11:40:32;;;;;;;2.72;2.00;;;;;;;26.28;49.75;99568.59;1657386;86;21102;-65
2023/07/29 11:43:01;;;;;;;3.85;2.12;;;;;;;26.23;49.62;99566.18;1657258;86;21093;-66
2023/07/29 11:45:31;;;;;;;2.15;1.72;;;;;;;26.18;49.96;99564.91;1657421;86;21115;-66
2023/07/29 11:48:02;;;;;;;3.00;2.00;;;;;;;26.26;50.19;99568.09;1654642;86;21047;-66
2023/07/29 11:50:31;;;;;;;3.22;2.15;;;;;;;26.31;50.18;99570.19;1657400;86;21102;-66